createdAt,value
2023-08-27T00:02:08.763Z,27.30
2023-08-27T00:05:10.730Z,27.25
2023-08-27T00:08:12.590Z,27.14
2023-08-27T00:11:14.339Z,27.14
2023-08-27T00:14:16.041Z,27.14
2023-08-27T00:17:17.709Z,27.12
2023-08-27T00:20:19.578Z,27.13
2023-08-27T00:23:21.327Z,27.10
2023-08-27T00:26:23.043Z,27.03
2023-08-27T00:29:24.797Z,26.96
2023-08-27T00:32:28.093Z,26.96
2023-08-27T00:35:29.804Z,26.95
2023-08-27T00:38:31.769Z,26.95
2023-08-27T00:41:33.473Z,26.97
2023-08-27T00:44:35.116Z,26.91
2023-08-27T00:47:38.669Z,26.89
2023-08-27T00:50:40.548Z,26.92
2023-08-27T00:53:42.371Z,26.96
2023-08-27T00:56:45.673Z,27.00
2023-08-27T00:59:48.070Z,27.01
2023-08-27T01:02:50.292Z,27.01
2023-08-27T01:05:53.063Z,26.92
2023-08-27T01:09:23.996Z,26.95
2023-08-27T01:12:36.676Z,26.90
2023-08-27T01:15:38.712Z,26.92
2023-08-27T01:18:41.063Z,26.84
2023-08-27T01:21:43.331Z,26.76
2023-08-27T01:24:45.034Z,26.72
2023-08-27T01:28:07.302Z,26.66
2023-08-27T01:31:16.022Z,26.65
2023-08-27T01:34:19.491Z,26.65
2023-08-27T01:37:22.012Z,26.62
2023-08-27T01:40:26.457Z,26.61
2023-08-27T01:43:28.170Z,26.59
2023-08-27T01:46:29.798Z,26.55
2023-08-27T01:49:31.608Z,26.49
2023-08-27T01:52:33.744Z,26.48
2023-08-27T01:55:35.532Z,26.47
2023-08-27T01:58:37.270Z,26.39
2023-08-27T02:01:39.112Z,26.23
2023-08-27T02:04:41.151Z,26.16
2023-08-27T02:07:42.889Z,26.11
2023-08-27T02:10:44.805Z,26.09
2023-08-27T02:13:46.499Z,26.07
2023-08-27T02:16:48.823Z,26.00
2023-08-27T02:19:50.916Z,25.90
2023-08-27T02:22:52.614Z,25.83
2023-08-27T02:25:54.578Z,25.80
2023-08-27T02:28:56.213Z,25.75
2023-08-27T02:31:57.939Z,25.71
2023-08-27T02:34:59.662Z,25.67
2023-08-27T02:38:01.366Z,25.67
2023-08-27T02:41:03.354Z,25.65
2023-08-27T02:44:05.242Z,25.66
2023-08-27T02:47:07.293Z,25.69
2023-08-27T02:50:09.432Z,25.68
2023-08-27T02:53:11.687Z,25.72
2023-08-27T02:56:13.370Z,25.78
2023-08-27T02:59:15.363Z,25.82
2023-08-27T03:02:16.974Z,25.86
2023-08-27T03:05:19.928Z,25.78
2023-08-27T03:08:21.682Z,25.69
2023-08-27T03:11:23.397Z,25.60
2023-08-27T03:14:25.098Z,25.50
2023-08-27T03:17:26.890Z,25.44
2023-08-27T03:20:28.538Z,25.36
2023-08-27T03:23:30.191Z,25.30
2023-08-27T03:26:31.870Z,25.28
2023-08-27T03:29:33.697Z,25.26
2023-08-27T03:32:36.217Z,25.23
2023-08-27T03:35:38.001Z,25.08
2023-08-27T03:38:39.647Z,24.98
2023-08-27T03:41:41.302Z,24.98
2023-08-27T03:44:42.887Z,24.78
2023-08-27T03:47:44.957Z,24.77
2023-08-27T03:50:46.736Z,24.70
2023-08-27T03:53:48.392Z,24.71
2023-08-27T03:56:50.126Z,24.66
2023-08-27T03:59:52.007Z,24.57
2023-08-27T04:02:53.729Z,24.55
2023-08-27T04:05:55.440Z,24.55
2023-08-27T04:08:57.839Z,24.52
2023-08-27T04:11:59.618Z,24.49
2023-08-27T04:15:01.343Z,24.53
2023-08-27T04:18:03.319Z,24.53
2023-08-27T04:21:05.571Z,24.51
2023-08-27T04:24:07.751Z,24.44
2023-08-27T04:27:09.553Z,24.43
2023-08-27T04:30:12.383Z,24.44
2023-08-27T04:33:14.114Z,24.36
2023-08-27T04:36:15.902Z,24.37
2023-08-27T04:39:17.608Z,24.41
2023-08-27T04:42:19.653Z,24.44
2023-08-27T04:45:21.325Z,24.47
2023-08-27T04:48:23.063Z,24.53
2023-08-27T04:51:26.407Z,24.57
2023-08-27T04:54:28.363Z,24.58
2023-08-27T04:57:30.052Z,24.62
2023-08-27T05:00:32.837Z,24.67
2023-08-27T05:03:34.538Z,24.71
2023-08-27T05:06:36.638Z,24.76
2023-08-27T05:09:38.524Z,24.83
2023-08-27T05:12:40.360Z,24.88
2023-08-27T05:15:42.027Z,24.95
2023-08-27T05:18:44.064Z,25.00
2023-08-27T05:21:46.142Z,25.07
2023-08-27T05:24:47.929Z,25.11
2023-08-27T05:27:49.626Z,25.20
2023-08-27T05:30:51.360Z,25.20
2023-08-27T05:33:53.126Z,25.19
2023-08-27T05:36:54.996Z,25.23
2023-08-27T05:39:57.031Z,25.31
2023-08-27T05:42:58.990Z,25.34
2023-08-27T05:46:00.702Z,25.39
2023-08-27T05:49:02.763Z,25.41
2023-08-27T05:52:04.704Z,25.44
2023-08-27T05:55:06.540Z,25.56
2023-08-27T05:58:08.195Z,25.59
2023-08-27T06:01:10.036Z,25.64
2023-08-27T06:04:11.908Z,25.71
2023-08-27T06:07:13.566Z,25.67
2023-08-27T06:10:15.772Z,25.83
2023-08-27T06:13:17.797Z,25.86
2023-08-27T06:16:19.796Z,25.88
2023-08-27T06:19:21.529Z,25.98
2023-08-27T06:22:23.296Z,26.09
2023-08-27T06:25:24.962Z,26.10
2023-08-27T06:28:26.564Z,26.10
2023-08-27T06:31:28.566Z,26.24
2023-08-27T06:34:30.270Z,26.28
2023-08-27T06:37:32.525Z,26.37
2023-08-27T06:40:34.187Z,26.44
2023-08-27T06:43:36.136Z,26.50
2023-08-27T06:46:37.815Z,26.68
2023-08-27T06:49:40.231Z,26.67
2023-08-27T06:52:41.910Z,26.70
2023-08-27T06:55:43.648Z,26.58
2023-08-27T06:58:45.369Z,26.56
2023-08-27T07:01:47.183Z,26.80
2023-08-27T07:04:49.052Z,26.97
2023-08-27T07:07:50.982Z,27.14
2023-08-27T07:10:52.645Z,27.05
2023-08-27T07:13:54.801Z,27.29
2023-08-27T07:16:56.715Z,27.36
2023-08-27T07:19:58.463Z,27.50
2023-08-27T07:23:00.180Z,27.63
2023-08-27T07:26:02.308Z,27.69
2023-08-27T07:29:04.039Z,27.80
2023-08-27T07:32:05.824Z,27.83
2023-08-27T07:35:07.910Z,28.11
2023-08-27T07:38:10.009Z,28.28
2023-08-27T07:41:13.258Z,28.15
2023-08-27T07:44:14.932Z,28.12
2023-08-27T07:47:16.927Z,28.31
2023-08-27T07:50:18.666Z,28.28
2023-08-27T07:53:20.471Z,28.31
2023-08-27T07:56:22.158Z,28.53
2023-08-27T07:59:24.178Z,28.76
2023-08-27T08:02:25.974Z,28.76
2023-08-27T08:05:27.776Z,28.91
2023-08-27T08:08:29.855Z,28.96
2023-08-27T08:11:31.912Z,29.03
2023-08-27T08:14:33.761Z,29.05
2023-08-27T08:17:44.873Z,29.31
2023-08-27T08:20:48.728Z,29.36
2023-08-27T08:23:50.756Z,29.35
2023-08-27T08:26:52.418Z,29.36
2023-08-27T08:29:54.868Z,29.46
2023-08-27T08:32:56.673Z,29.53
2023-08-27T08:35:58.430Z,29.59
2023-08-27T08:39:00.271Z,29.74
2023-08-27T08:42:16.575Z,29.83
2023-08-27T08:45:27.344Z,29.82
2023-08-27T08:48:32.678Z,29.91
2023-08-27T08:51:34.591Z,30.05
2023-08-27T08:54:40.768Z,30.08
2023-08-27T08:57:50.717Z,30.06
2023-08-27T09:00:52.622Z,30.10
2023-08-27T09:03:56.368Z,30.23
2023-08-27T09:06:58.593Z,30.36
2023-08-27T09:10:03.067Z,30.42
2023-08-27T09:13:06.035Z,30.48
2023-08-27T09:16:07.853Z,30.51
2023-08-27T09:19:10.222Z,30.48
2023-08-27T09:22:12.140Z,30.56
2023-08-27T09:25:14.506Z,30.76
2023-08-27T09:28:18.066Z,30.95
2023-08-27T09:31:38.982Z,31.09
2023-08-27T09:34:40.675Z,31.25
2023-08-27T09:37:44.277Z,31.32
2023-08-27T09:40:46.183Z,31.43
2023-08-27T09:43:52.669Z,31.38
2023-08-27T09:47:04.791Z,31.56
2023-08-27T09:50:08.661Z,31.61
2023-08-27T09:53:15.888Z,31.59
2023-08-27T09:56:17.546Z,31.74
2023-08-27T09:59:20.014Z,31.89
2023-08-27T10:02:21.729Z,32.06
2023-08-27T10:05:42.502Z,32.21
2023-08-27T10:08:50.719Z,32.34
2023-08-27T10:11:53.141Z,32.47
2023-08-27T10:14:55.595Z,32.61
2023-08-27T10:17:59.564Z,32.51
2023-08-27T10:21:01.868Z,32.61
2023-08-27T10:24:06.429Z,32.86
2023-08-27T10:27:08.374Z,32.97
2023-08-27T10:30:24.360Z,33.04
2023-08-27T10:33:27.963Z,33.45
2023-08-27T10:36:36.449Z,36.86
2023-08-27T10:39:39.504Z,41.22
2023-08-27T10:42:41.596Z,43.46
2023-08-27T10:45:43.343Z,43.69
2023-08-27T10:48:54.076Z,44.88
2023-08-27T10:51:56.911Z,45.32
2023-08-27T10:55:01.655Z,45.60
2023-08-27T10:58:23.315Z,45.28
2023-08-27T11:01:25.601Z,45.53
2023-08-27T11:04:38.322Z,46.67
2023-08-27T11:07:42.031Z,45.95
2023-08-27T11:10:43.771Z,45.20
2023-08-27T11:13:45.563Z,45.62
2023-08-27T11:17:06.113Z,45.47
2023-08-27T11:20:22.258Z,44.79
2023-08-27T11:23:23.962Z,46.26
2023-08-27T11:26:28.557Z,45.90
2023-08-27T11:29:30.883Z,46.40
2023-08-27T11:32:32.695Z,45.67
2023-08-27T11:35:37.494Z,44.97
2023-08-27T11:38:39.166Z,46.13
2023-08-27T11:41:42.662Z,45.95
2023-08-27T11:44:50.103Z,45.42
2023-08-27T11:47:51.854Z,44.84
2023-08-27T11:50:53.592Z,44.88
2023-08-27T11:53:55.503Z,45.65
2023-08-27T11:56:58.430Z,44.29
2023-08-27T12:00:00.080Z,43.16
2023-08-27T12:03:02.014Z,43.20
2023-08-27T12:06:03.795Z,44.51
2023-08-27T12:09:05.458Z,45.04
2023-08-27T12:12:08.583Z,45.29
2023-08-27T12:15:10.821Z,41.94
2023-08-27T12:18:12.538Z,39.64
2023-08-27T12:21:15.113Z,37.84
2023-08-27T12:24:29.173Z,37.18
2023-08-27T12:27:31.078Z,36.92
2023-08-27T12:30:35.922Z,36.75
2023-08-27T12:33:38.980Z,36.75
2023-08-27T12:36:40.635Z,36.34
2023-08-27T12:39:43.520Z,36.09
2023-08-27T12:42:45.216Z,36.28
2023-08-27T12:45:47.035Z,36.16
2023-08-27T12:48:49.004Z,36.15
2023-08-27T12:51:50.793Z,36.23
2023-08-27T12:54:52.633Z,36.03
2023-08-27T12:57:54.676Z,36.29
2023-08-27T13:00:56.693Z,35.94
2023-08-27T13:03:58.880Z,36.09
2023-08-27T13:07:00.644Z,36.10
2023-08-27T13:10:02.459Z,36.09
2023-08-27T13:13:04.296Z,36.10
2023-08-27T13:16:06.073Z,36.19
2023-08-27T13:19:08.214Z,36.24
2023-08-27T13:22:10.058Z,36.19
2023-08-27T13:25:12.022Z,36.19
2023-08-27T13:28:13.987Z,36.08
2023-08-27T13:31:16.548Z,35.85
2023-08-27T13:34:18.323Z,35.83
2023-08-27T13:37:20.007Z,35.70
2023-08-27T13:40:21.756Z,35.85
2023-08-27T13:43:23.519Z,35.95
2023-08-27T13:46:25.337Z,35.80
2023-08-27T13:49:27.020Z,35.97
2023-08-27T13:52:28.997Z,36.06
2023-08-27T13:55:31.171Z,36.01
2023-08-27T13:58:34.275Z,36.06
2023-08-27T14:01:36.561Z,36.06
2023-08-27T14:04:38.310Z,36.00
2023-08-27T14:07:39.954Z,35.94
2023-08-27T14:10:41.625Z,35.94
2023-08-27T14:13:43.322Z,36.04
2023-08-27T14:16:45.599Z,36.04
2023-08-27T14:19:48.018Z,36.03
2023-08-27T14:22:49.682Z,35.94
2023-08-27T14:25:51.513Z,35.98
2023-08-27T14:28:53.351Z,35.98
2023-08-27T14:31:55.018Z,36.09
2023-08-27T14:34:56.769Z,36.05
2023-08-27T14:37:58.602Z,36.00
2023-08-27T14:41:00.852Z,35.97
2023-08-27T14:44:02.940Z,35.96
2023-08-27T14:47:05.132Z,35.92
2023-08-27T14:50:07.674Z,35.96
2023-08-27T14:53:09.712Z,35.98
2023-08-27T14:56:11.727Z,35.97
2023-08-27T14:59:31.326Z,36.00
2023-08-27T15:02:33.053Z,35.90
2023-08-27T15:05:35.356Z,35.82
2023-08-27T15:08:37.845Z,35.77
2023-08-27T15:11:39.598Z,35.72
2023-08-27T15:14:41.262Z,35.68
2023-08-27T15:17:43.423Z,35.65
2023-08-27T15:20:47.228Z,35.61
2023-08-27T15:23:49.044Z,35.58
2023-08-27T15:26:50.677Z,35.51
2023-08-27T15:29:55.452Z,35.47
2023-08-27T15:32:57.566Z,35.44
2023-08-27T15:35:59.348Z,35.34
2023-08-27T15:39:01.097Z,35.21
2023-08-27T15:42:03.300Z,35.15
2023-08-27T15:45:05.770Z,35.08
2023-08-27T15:48:07.530Z,34.99
2023-08-27T15:51:09.355Z,34.93
2023-08-27T15:54:11.028Z,34.86
2023-08-27T15:57:12.755Z,34.75
2023-08-27T16:00:14.890Z,34.67
2023-08-27T16:03:38.071Z,34.62
2023-08-27T16:06:39.886Z,34.47
2023-08-27T16:09:42.031Z,34.48
2023-08-27T16:12:43.698Z,34.33
2023-08-27T16:15:48.256Z,34.40
2023-08-27T16:18:53.194Z,34.38
2023-08-27T16:21:54.902Z,34.35
2023-08-27T16:24:56.697Z,34.30
2023-08-27T16:27:58.916Z,34.20
2023-08-27T16:31:02.260Z,34.14
2023-08-27T16:34:04.211Z,34.00
2023-08-27T16:37:05.841Z,33.98
2023-08-27T16:40:08.408Z,33.90
2023-08-27T16:43:10.439Z,33.82
2023-08-27T16:46:12.246Z,33.82
2023-08-27T16:49:14.134Z,33.76
2023-08-27T16:52:15.962Z,33.69
2023-08-27T16:55:17.885Z,33.55
2023-08-27T16:58:19.562Z,33.40
2023-08-27T17:01:24.280Z,33.29
2023-08-27T17:04:26.592Z,33.18
2023-08-27T17:07:28.308Z,33.08
2023-08-27T17:10:30.290Z,32.92
2023-08-27T17:13:31.976Z,32.79
2023-08-27T17:16:33.758Z,32.70
2023-08-27T17:19:35.481Z,32.68
2023-08-27T17:22:37.614Z,32.63
2023-08-27T17:25:39.255Z,32.57
2023-08-27T17:28:40.899Z,32.45
2023-08-27T17:31:42.757Z,32.41
2023-08-27T17:34:44.453Z,32.36
2023-08-27T17:37:57.927Z,32.25
2023-08-27T17:40:59.693Z,32.12
2023-08-27T17:44:01.418Z,32.03
2023-08-27T17:47:03.897Z,31.93
2023-08-27T17:50:06.404Z,31.90
2023-08-27T17:53:08.375Z,31.85
2023-08-27T17:56:10.055Z,31.79
2023-08-27T17:59:12.077Z,31.71
2023-08-27T18:02:13.940Z,31.67
2023-08-27T18:05:16.275Z,31.66
2023-08-27T18:08:18.729Z,31.60
2023-08-27T18:11:20.445Z,31.55
2023-08-27T18:14:22.287Z,31.40
2023-08-27T18:17:24.106Z,31.33
2023-08-27T18:20:25.933Z,31.29
2023-08-27T18:23:27.651Z,31.20
2023-08-27T18:26:29.565Z,31.15
2023-08-27T18:29:31.358Z,31.12
2023-08-27T18:32:33.093Z,31.13
2023-08-27T18:35:34.855Z,31.10
2023-08-27T18:38:36.682Z,31.06
2023-08-27T18:41:38.783Z,30.96
2023-08-27T18:44:40.842Z,30.90
2023-08-27T18:47:42.617Z,30.81
2023-08-27T18:50:44.963Z,30.79
2023-08-27T18:54:05.919Z,30.78
2023-08-27T18:57:07.979Z,30.76
2023-08-27T19:00:10.083Z,30.73
2023-08-27T19:03:12.207Z,30.68
2023-08-27T19:06:13.948Z,30.63
2023-08-27T19:09:15.654Z,30.61
2023-08-27T19:12:18.005Z,30.56
2023-08-27T19:15:19.764Z,30.46
2023-08-27T19:18:21.518Z,30.41
2023-08-27T19:21:23.285Z,30.34
2023-08-27T19:24:24.993Z,30.26
2023-08-27T19:27:26.965Z,30.20
2023-08-27T19:30:30.880Z,30.17
2023-08-27T19:33:32.677Z,30.15
2023-08-27T19:36:34.526Z,30.12
2023-08-27T19:39:36.222Z,30.04
2023-08-27T19:42:38.692Z,29.96
2023-08-27T19:45:40.547Z,29.93
2023-08-27T19:48:42.875Z,29.92
2023-08-27T19:51:44.754Z,29.94
2023-08-27T19:54:46.722Z,29.90
2023-08-27T19:57:48.763Z,29.87
2023-08-27T20:00:50.569Z,29.86
2023-08-27T20:03:52.366Z,29.82
2023-08-27T20:06:54.154Z,29.78
2023-08-27T20:09:57.562Z,29.68
2023-08-27T20:12:59.645Z,29.66
2023-08-27T20:16:02.260Z,29.46
2023-08-27T20:19:04.000Z,29.54
2023-08-27T20:22:06.062Z,29.52
2023-08-27T20:25:08.199Z,29.50
2023-08-27T20:28:10.199Z,29.46
2023-08-27T20:31:11.962Z,29.36
2023-08-27T20:34:14.818Z,29.31
2023-08-27T20:37:16.617Z,29.27
2023-08-27T20:40:18.431Z,29.25
2023-08-27T20:43:20.674Z,29.25
2023-08-27T20:46:22.822Z,29.22
2023-08-27T20:49:24.567Z,29.18
2023-08-27T20:52:26.321Z,29.19
2023-08-27T20:55:28.042Z,29.20
2023-08-27T20:58:29.811Z,29.11
2023-08-27T21:01:33.544Z,29.17
2023-08-27T21:04:35.349Z,29.17
2023-08-27T21:07:38.905Z,29.16
2023-08-27T21:10:40.740Z,29.13
2023-08-27T21:13:42.397Z,29.12
2023-08-27T21:16:44.274Z,29.10
2023-08-27T21:19:45.978Z,29.06
2023-08-27T21:22:47.764Z,28.99
2023-08-27T21:25:50.038Z,28.85
2023-08-27T21:28:51.811Z,28.77
2023-08-27T21:31:55.106Z,28.75
2023-08-27T21:34:57.005Z,28.76
2023-08-27T21:37:58.683Z,28.76
2023-08-27T21:41:00.506Z,28.70
2023-08-27T21:44:02.192Z,28.66
2023-08-27T21:47:04.742Z,28.65
2023-08-27T21:50:07.146Z,28.61
2023-08-27T21:53:09.040Z,28.56
2023-08-27T21:56:10.728Z,28.55
2023-08-27T21:59:12.373Z,28.50
2023-08-27T22:02:14.875Z,28.45
2023-08-27T22:05:17.878Z,28.39
2023-08-27T22:08:19.530Z,28.35
2023-08-27T22:11:21.189Z,28.35
2023-08-27T22:14:22.884Z,28.32
2023-08-27T22:17:25.219Z,28.32
2023-08-27T22:20:27.002Z,28.33
2023-08-27T22:23:28.828Z,28.31
2023-08-27T22:26:30.533Z,28.25
2023-08-27T22:29:32.721Z,28.17
2023-08-27T22:32:34.827Z,28.10
2023-08-27T22:35:36.689Z,28.03
2023-08-27T22:38:38.351Z,27.94
2023-08-27T22:41:40.340Z,27.91
2023-08-27T22:44:42.044Z,27.87
2023-08-27T22:47:43.940Z,27.83
2023-08-27T22:50:45.966Z,27.78
2023-08-27T22:53:48.047Z,27.75
2023-08-27T22:56:49.841Z,27.67
2023-08-27T22:59:51.561Z,27.69
2023-08-27T23:02:53.351Z,27.69
2023-08-27T23:05:55.230Z,27.68
2023-08-27T23:08:57.766Z,27.70
2023-08-27T23:11:59.510Z,27.69
2023-08-27T23:15:01.178Z,27.70
2023-08-27T23:18:03.068Z,27.68
2023-08-27T23:21:05.130Z,27.56
2023-08-27T23:24:06.957Z,27.44
2023-08-27T23:27:09.300Z,27.35
2023-08-27T23:30:11.364Z,27.26
2023-08-27T23:33:13.030Z,27.25
2023-08-27T23:36:14.766Z,27.29
2023-08-27T23:39:16.414Z,27.27
2023-08-27T23:42:18.181Z,27.26
2023-08-27T23:45:19.924Z,27.27
2023-08-27T23:48:21.759Z,27.25
2023-08-27T23:51:23.703Z,27.25
2023-08-27T23:54:25.972Z,27.20
2023-08-27T23:57:29.173Z,27.19
